sensor_id;sensor_type;location;lat;lon;timestamp;pressure;altitude;pressure_sealevel;temperature;humidity
8717;BME280;4395;48.554;8.820;2023-04-23T00:00:34;95287.94;;;13.02;100.00
8717;BME280;4395;48.554;8.820;2023-04-23T00:02:38;95290.59;;;13.07;100.00
8717;BME280;4395;48.554;8.820;2023-04-23T00:04:48;95225.34;;;12.66;100.00
8717;BME280;4395;48.554;8.820;2023-04-23T00:06:52;95261.59;;;12.84;100.00
8717;BME280;4395;48.554;8.820;2023-04-23T00:08:56;95220.25;;;12.65;100.00
8717;BME280;4395;48.554;8.820;2023-04-23T00:11:01;95287.88;;;13.07;100.00
8717;BME280;4395;48.554;8.820;2023-04-23T00:13:04;95297.03;;;13.11;100.00
8717;BME280;4395;48.554;8.820;2023-04-23T00:15:09;95297.25;;;13.15;100.00
8717;BME280;4395;48.554;8.820;2023-04-23T00:17:13;95303.22;;;13.12;100.00
8717;BME280;4395;48.554;8.820;2023-04-23T00:19:15;95298.06;;;13.15;100.00
8717;BME280;4395;48.554;8.820;2023-04-23T00:21:18;95288.41;;;13.09;100.00
8717;BME280;4395;48.554;8.820;2023-04-23T00:23:21;95298.69;;;13.07;100.00
8717;BME280;4395;48.554;8.820;2023-04-23T00:25:24;95297.09;;;13.01;100.00
8717;BME280;4395;48.554;8.820;2023-04-23T00:27:26;95300.88;;;13.00;100.00
8717;BME280;4395;48.554;8.820;2023-04-23T00:29:29;95257.63;;;12.76;100.00
8717;BME280;4395;48.554;8.820;2023-04-23T00:31:32;95302.03;;;12.89;100.00
8717;BME280;4395;48.554;8.820;2023-04-23T00:33:36;95307.56;;;12.69;100.00
8717;BME280;4395;48.554;8.820;2023-04-23T00:35:40;95305.66;;;12.69;100.00
8717;BME280;4395;48.554;8.820;2023-04-23T00:37:43;95307.59;;;12.64;100.00
8717;BME280;4395;48.554;8.820;2023-04-23T00:39:45;95319.53;;;12.47;100.00
8717;BME280;4395;48.554;8.820;2023-04-23T00:41:49;95307.75;;;12.33;100.00
8717;BME280;4395;48.554;8.820;2023-04-23T00:43:52;95313.75;;;12.20;100.00
8717;BME280;4395;48.554;8.820;2023-04-23T00:45:55;95268.88;;;11.95;100.00
8717;BME280;4395;48.554;8.820;2023-04-23T00:47:58;95296.47;;;12.26;100.00
8717;BME280;4395;48.554;8.820;2023-04-23T00:50:04;95297.50;;;12.35;100.00
8717;BME280;4395;48.554;8.820;2023-04-23T00:52:07;95303.47;;;12.27;100.00
8717;BME280;4395;48.554;8.820;2023-04-23T00:54:09;95273.47;;;11.95;100.00
8717;BME280;4395;48.554;8.820;2023-04-23T00:56:13;95264.78;;;12.08;100.00
8717;BME280;4395;48.554;8.820;2023-04-23T00:58:16;95310.38;;;12.48;100.00
8717;BME280;4395;48.554;8.820;2023-04-23T01:00:21;95314.75;;;12.34;100.00
8717;BME280;4395;48.554;8.820;2023-04-23T01:02:24;94943.81;;;10.04;100.00
8717;BME280;4395;48.554;8.820;2023-04-23T01:04:29;95306.41;;;12.36;100.00
8717;BME280;4395;48.554;8.820;2023-04-23T01:06:34;95312.22;;;12.53;100.00
8717;BME280;4395;48.554;8.820;2023-04-23T01:08:37;95280.78;;;12.38;100.00
8717;BME280;4395;48.554;8.820;2023-04-23T01:10:41;95307.09;;;12.56;100.00
8717;BME280;4395;48.554;8.820;2023-04-23T01:12:44;95264.22;;;12.16;100.00
8717;BME280;4395;48.554;8.820;2023-04-23T01:14:48;95315.78;;;12.43;100.00
8717;BME280;4395;48.554;8.820;2023-04-23T01:16:51;95237.63;;;11.99;100.00
8717;BME280;4395;48.554;8.820;2023-04-23T01:18:54;95321.09;;;12.59;100.00
8717;BME280;4395;48.554;8.820;2023-04-23T01:20:57;95183.63;;;11.70;100.00
8717;BME280;4395;48.554;8.820;2023-04-23T01:23:02;95125.16;;;11.26;100.00
8717;BME280;4395;48.554;8.820;2023-04-23T01:25:06;95151.09;;;10.77;100.00
8717;BME280;4395;48.554;8.820;2023-04-23T01:27:11;95319.63;;;12.32;100.00
8717;BME280;4395;48.554;8.820;2023-04-23T01:29:13;95357.06;;;12.34;100.00
8717;BME280;4395;48.554;8.820;2023-04-23T01:31:17;95318.59;;;12.23;100.00
8717;BME280;4395;48.554;8.820;2023-04-23T01:33:20;95322.91;;;12.19;100.00
8717;BME280;4395;48.554;8.820;2023-04-23T01:35:23;95318.38;;;12.09;100.00
8717;BME280;4395;48.554;8.820;2023-04-23T01:37:27;95318.13;;;12.01;100.00
8717;BME280;4395;48.554;8.820;2023-04-23T01:39:32;95314.09;;;12.03;100.00
8717;BME280;4395;48.554;8.820;2023-04-23T01:41:36;95304.69;;;11.96;100.00
8717;BME280;4395;48.554;8.820;2023-04-23T01:43:40;95114.59;;;10.55;100.00
8717;BME280;4395;48.554;8.820;2023-04-23T01:45:43;95328.44;;;11.63;100.00
8717;BME280;4395;48.554;8.820;2023-04-23T01:47:46;95317.41;;;11.65;100.00
8717;BME280;4395;48.554;8.820;2023-04-23T01:49:50;95331.09;;;11.94;100.00
8717;BME280;4395;48.554;8.820;2023-04-23T01:51:53;95351.47;;;12.20;100.00
8717;BME280;4395;48.554;8.820;2023-04-23T01:53:56;95272.44;;;11.80;100.00
8717;BME280;4395;48.554;8.820;2023-04-23T01:56:00;95350.06;;;12.33;100.00
8717;BME280;4395;48.554;8.820;2023-04-23T01:58:03;95158.03;;;11.08;100.00
8717;BME280;4395;48.554;8.820;2023-04-23T02:00:08;95343.06;;;12.32;100.00
8717;BME280;4395;48.554;8.820;2023-04-23T02:02:14;95342.78;;;12.33;100.00
8717;BME280;4395;48.554;8.820;2023-04-23T02:04:17;95303.53;;;12.17;100.00
8717;BME280;4395;48.554;8.820;2023-04-23T02:06:20;95338.78;;;12.26;100.00
8717;BME280;4395;48.554;8.820;2023-04-23T02:08:23;95340.06;;;12.38;100.00
8717;BME280;4395;48.554;8.820;2023-04-23T02:10:26;95342.75;;;12.38;100.00
8717;BME280;4395;48.554;8.820;2023-04-23T02:12:31;95335.75;;;12.42;100.00
8717;BME280;4395;48.554;8.820;2023-04-23T02:14:34;95204.53;;;11.14;100.00
8717;BME280;4395;48.554;8.820;2023-04-23T02:16:38;95337.31;;;11.74;100.00
8717;BME280;4395;48.554;8.820;2023-04-23T02:18:40;95334.59;;;11.89;100.00
8717;BME280;4395;48.554;8.820;2023-04-23T02:20:43;95337.00;;;12.01;100.00
8717;BME280;4395;48.554;8.820;2023-04-23T02:22:47;95345.59;;;12.03;100.00
8717;BME280;4395;48.554;8.820;2023-04-23T02:24:51;95327.25;;;12.15;100.00
8717;BME280;4395;48.554;8.820;2023-04-23T02:26:54;95324.66;;;11.74;100.00
8717;BME280;4395;48.554;8.820;2023-04-23T02:28:59;95330.03;;;11.89;100.00
8717;BME280;4395;48.554;8.820;2023-04-23T02:31:02;95343.47;;;12.00;100.00
8717;BME280;4395;48.554;8.820;2023-04-23T02:33:05;95338.03;;;12.10;100.00
8717;BME280;4395;48.554;8.820;2023-04-23T02:35:08;95351.47;;;12.20;100.00
8717;BME280;4395;48.554;8.820;2023-04-23T02:37:11;95339.31;;;12.22;100.00
8717;BME280;4395;48.554;8.820;2023-04-23T02:39:14;95355.75;;;12.26;100.00
8717;BME280;4395;48.554;8.820;2023-04-23T02:41:17;95337.94;;;12.30;100.00
8717;BME280;4395;48.554;8.820;2023-04-23T02:43:19;95335.78;;;12.32;100.00
8717;BME280;4395;48.554;8.820;2023-04-23T02:45:23;95287.97;;;12.04;100.00
8717;BME280;4395;48.554;8.820;2023-04-23T02:47:26;95341.16;;;12.37;100.00
8717;BME280;4395;48.554;8.820;2023-04-23T02:49:30;95349.50;;;12.41;100.00
8717;BME280;4395;48.554;8.820;2023-04-23T02:51:33;95172.75;;;11.26;100.00
8717;BME280;4395;48.554;8.820;2023-04-23T02:53:36;95265.44;;;11.79;100.00
8717;BME280;4395;48.554;8.820;2023-04-23T02:55:39;95336.56;;;12.38;100.00
8717;BME280;4395;48.554;8.820;2023-04-23T02:57:43;95338.44;;;12.42;100.00
8717;BME280;4395;48.554;8.820;2023-04-23T02:59:46;95306.72;;;12.24;100.00
8717;BME280;4395;48.554;8.820;2023-04-23T03:01:52;95313.44;;;12.27;100.00
8717;BME280;4395;48.554;8.820;2023-04-23T03:03:57;95290.06;;;12.17;100.00
8717;BME280;4395;48.554;8.820;2023-04-23T03:06:00;95333.31;;;12.41;100.00
8717;BME280;4395;48.554;8.820;2023-04-23T03:08:03;95258.97;;;11.85;100.00
8717;BME280;4395;48.554;8.820;2023-04-23T03:10:07;95297.34;;;12.16;100.00
8717;BME280;4395;48.554;8.820;2023-04-23T03:12:10;95326.59;;;12.38;100.00
8717;BME280;4395;48.554;8.820;2023-04-23T03:14:13;95321.47;;;12.37;100.00
8717;BME280;4395;48.554;8.820;2023-04-23T03:16:16;95320.41;;;12.38;100.00
8717;BME280;4395;48.554;8.820;2023-04-23T03:18:21;95319.59;;;12.37;100.00
8717;BME280;4395;48.554;8.820;2023-04-23T03:20:27;95281.47;;;12.10;100.00
8717;BME280;4395;48.554;8.820;2023-04-23T03:22:30;95318.53;;;12.33;100.00
8717;BME280;4395;48.554;8.820;2023-04-23T03:24:33;95322.38;;;12.22;100.00
8717;BME280;4395;48.554;8.820;2023-04-23T03:26:36;95290.97;;;11.92;100.00
8717;BME280;4395;48.554;8.820;2023-04-23T03:28:39;95318.34;;;12.14;100.00
8717;BME280;4395;48.554;8.820;2023-04-23T03:30:42;95332.38;;;12.06;100.00
8717;BME280;4395;48.554;8.820;2023-04-23T03:32:45;95150.88;;;10.53;100.00
8717;BME280;4395;48.554;8.820;2023-04-23T03:34:49;95334.28;;;12.01;100.00
8717;BME280;4395;48.554;8.820;2023-04-23T03:36:53;95338.31;;;12.08;100.00
8717;BME280;4395;48.554;8.820;2023-04-23T03:38:56;95343.16;;;12.11;100.00
8717;BME280;4395;48.554;8.820;2023-04-23T03:41:02;95339.66;;;12.11;100.00
8717;BME280;4395;48.554;8.820;2023-04-23T03:43:05;95246.69;;;11.44;100.00
8717;BME280;4395;48.554;8.820;2023-04-23T03:45:31;95176.63;;;10.89;100.00
8717;BME280;4395;48.554;8.820;2023-04-23T03:47:34;95232.19;;;11.35;100.00
8717;BME280;4395;48.554;8.820;2023-04-23T03:49:38;95308.53;;;11.79;100.00
8717;BME280;4395;48.554;8.820;2023-04-23T03:51:43;95338.09;;;11.95;100.00
8717;BME280;4395;48.554;8.820;2023-04-23T03:53:46;95247.78;;;11.38;100.00
8717;BME280;4395;48.554;8.820;2023-04-23T03:56:09;95320.91;;;11.80;100.00
8717;BME280;4395;48.554;8.820;2023-04-23T03:58:21;95340.75;;;12.00;100.00
8717;BME280;4395;48.554;8.820;2023-04-23T04:00:26;95352.91;;;11.87;100.00
8717;BME280;4395;48.554;8.820;2023-04-23T04:02:28;95338.13;;;11.84;100.00
8717;BME280;4395;48.554;8.820;2023-04-23T04:04:32;95343.47;;;11.89;100.00
8717;BME280;4395;48.554;8.820;2023-04-23T04:06:35;95337.56;;;11.87;100.00
8717;BME280;4395;48.554;8.820;2023-04-23T04:08:39;95182.28;;;10.83;100.00
8717;BME280;4395;48.554;8.820;2023-04-23T04:10:42;95335.69;;;11.83;100.00
8717;BME280;4395;48.554;8.820;2023-04-23T04:12:45;95341.63;;;11.80;100.00
8717;BME280;4395;48.554;8.820;2023-04-23T04:14:48;95341.34;;;11.76;100.00
8717;BME280;4395;48.554;8.820;2023-04-23T04:16:51;95347.81;;;11.75;100.00
8717;BME280;4395;48.554;8.820;2023-04-23T04:18:55;95344.31;;;11.75;100.00
8717;BME280;4395;48.554;8.820;2023-04-23T04:20:58;95338.66;;;11.71;100.00
8717;BME280;4395;48.554;8.820;2023-04-23T04:23:01;95333.81;;;11.68;100.00
8717;BME280;4395;48.554;8.820;2023-04-23T04:25:06;95330.59;;;11.66;100.00
8717;BME280;4395;48.554;8.820;2023-04-23T04:27:09;95335.72;;;11.63;100.00
8717;BME280;4395;48.554;8.820;2023-04-23T04:29:12;95351.31;;;11.66;100.00
8717;BME280;4395;48.554;8.820;2023-04-23T04:31:15;95350.25;;;11.62;100.00
8717;BME280;4395;48.554;8.820;2023-04-23T04:33:18;95341.38;;;11.51;100.00
8717;BME280;4395;48.554;8.820;2023-04-23T04:35:21;95333.84;;;11.53;100.00
8717;BME280;4395;48.554;8.820;2023-04-23T04:37:24;95338.97;;;11.54;100.00
8717;BME280;4395;48.554;8.820;2023-04-23T04:39:28;95291.38;;;11.24;100.00
8717;BME280;4395;48.554;8.820;2023-04-23T04:41:32;95331.97;;;11.48;100.00
8717;BME280;4395;48.554;8.820;2023-04-23T04:43:35;95326.88;;;11.47;100.00
8717;BME280;4395;48.554;8.820;2023-04-23T04:45:38;95334.66;;;11.48;100.00
8717;BME280;4395;48.554;8.820;2023-04-23T04:47:40;95333.03;;;11.47;100.00
8717;BME280;4395;48.554;8.820;2023-04-23T04:49:43;95341.66;;;11.49;100.00
8717;BME280;4395;48.554;8.820;2023-04-23T04:51:46;95337.63;;;11.47;100.00
8717;BME280;4395;48.554;8.820;2023-04-23T04:53:49;95336.00;;;11.46;100.00
8717;BME280;4395;48.554;8.820;2023-04-23T04:55:52;95351.34;;;11.45;100.00
8717;BME280;4395;48.554;8.820;2023-04-23T04:57:56;95182.03;;;10.49;100.00
8717;BME280;4395;48.554;8.820;2023-04-23T05:00:00;95358.59;;;11.50;100.00
8717;BME280;4395;48.554;8.820;2023-04-23T05:02:05;95339.22;;;11.48;100.00
8717;BME280;4395;48.554;8.820;2023-04-23T05:04:08;95336.00;;;11.51;100.00
8717;BME280;4395;48.554;8.820;2023-04-23T05:06:11;95343.25;;;11.55;100.00
8717;BME280;4395;48.554;8.820;2023-04-23T05:08:14;95347.56;;;11.56;100.00
8717;BME280;4395;48.554;8.820;2023-04-23T05:10:17;95348.38;;;11.57;100.00
8717;BME280;4395;48.554;8.820;2023-04-23T05:12:21;95346.22;;;11.59;100.00
8717;BME280;4395;48.554;8.820;2023-04-23T05:14:25;95328.72;;;11.62;100.00
8717;BME280;4395;48.554;8.820;2023-04-23T05:16:27;95333.81;;;11.68;100.00
8717;BME280;4395;48.554;8.820;2023-04-23T05:18:30;95336.78;;;11.72;100.00
8717;BME280;4395;48.554;8.820;2023-04-23T05:20:33;95205.38;;;10.94;100.00
8717;BME280;4395;48.554;8.820;2023-04-23T05:22:36;95332.75;;;11.79;100.00
8717;BME280;4395;48.554;8.820;2023-04-23T05:24:39;95338.66;;;11.86;100.00
8717;BME280;4395;48.554;8.820;2023-04-23T05:26:42;95327.91;;;11.81;100.00
8717;BME280;4395;48.554;8.820;2023-04-23T05:28:45;95338.66;;;11.81;100.00
8717;BME280;4395;48.554;8.820;2023-04-23T05:30:50;95343.75;;;11.88;100.00
8717;BME280;4395;48.554;8.820;2023-04-23T05:32:52;95339.72;;;11.85;100.00
8717;BME280;4395;48.554;8.820;2023-04-23T05:34:55;95340.81;;;11.79;100.00
8717;BME280;4395;48.554;8.820;2023-04-23T05:36:58;95333.03;;;11.78;100.00
8717;BME280;4395;48.554;8.820;2023-04-23T05:39:01;95343.78;;;11.78;100.00
8717;BME280;4395;48.554;8.820;2023-04-23T05:41:04;95347.53;;;11.77;100.00
8717;BME280;4395;48.554;8.820;2023-04-23T05:43:07;95349.16;;;11.88;100.00
8717;BME280;4395;48.554;8.820;2023-04-23T05:45:10;95337.59;;;11.82;100.00
8717;BME280;4395;48.554;8.820;2023-04-23T05:47:14;95338.66;;;11.86;100.00
8717;BME280;4395;48.554;8.820;2023-04-23T05:49:17;95343.47;;;11.95;100.00
8717;BME280;4395;48.554;8.820;2023-04-23T05:51:20;95305.81;;;11.69;100.00
8717;BME280;4395;48.554;8.820;2023-04-23T05:53:23;95300.44;;;11.79;100.00
8717;BME280;4395;48.554;8.820;2023-04-23T05:55:26;95350.94;;;12.13;100.00
8717;BME280;4395;48.554;8.820;2023-04-23T05:57:29;95343.41;;;12.15;100.00
8717;BME280;4395;48.554;8.820;2023-04-23T05:59:32;95353.06;;;12.21;100.00
8717;BME280;4395;48.554;8.820;2023-04-23T06:01:35;95341.25;;;12.17;100.00
8717;BME280;4395;48.554;8.820;2023-04-23T06:03:39;95351.47;;;12.20;100.00
8717;BME280;4395;48.554;8.820;2023-04-23T06:05:46;95305.25;;;11.87;100.00
8717;BME280;4395;48.554;8.820;2023-04-23T06:07:49;94924.56;;;9.46;100.00
8717;BME280;4395;48.554;8.820;2023-04-23T06:09:52;95350.66;;;12.19;100.00
8717;BME280;4395;48.554;8.820;2023-04-23T06:11:54;95247.22;;;11.46;100.00
8717;BME280;4395;48.554;8.820;2023-04-23T06:13:57;95350.94;;;12.13;100.00
8717;BME280;4395;48.554;8.820;2023-04-23T06:16:00;95355.28;;;12.09;100.00
8717;BME280;4395;48.554;8.820;2023-04-23T06:18:03;95350.94;;;12.13;100.00
8717;BME280;4395;48.554;8.820;2023-04-23T06:20:08;95343.09;;;12.21;100.00
8717;BME280;4395;48.554;8.820;2023-04-23T06:22:12;95357.91;;;12.24;100.00
8717;BME280;4395;48.554;8.820;2023-04-23T06:24:15;95342.25;;;12.31;100.00
8717;BME280;4395;48.554;8.820;2023-04-23T06:26:18;95346.00;;;12.35;100.00
8717;BME280;4395;48.554;8.820;2023-04-23T06:28:23;95330.69;;;12.26;100.00
8717;BME280;4395;48.554;8.820;2023-04-23T06:30:45;95351.13;;;12.37;100.00
8717;BME280;4395;48.554;8.820;2023-04-23T06:32:48;95160.66;;;11.23;100.00
8717;BME280;4395;48.554;8.820;2023-04-23T06:34:51;95353.53;;;12.38;100.00
8717;BME280;4395;48.554;8.820;2023-04-23T06:37:04;95347.34;;;12.38;100.00
8717;BME280;4395;48.554;8.820;2023-04-23T06:39:06;95339.00;;;12.34;100.00
8717;BME280;4395;48.554;8.820;2023-04-23T06:41:09;95342.00;;;12.28;100.00
8717;BME280;4395;48.554;8.820;2023-04-23T06:43:13;95341.13;;;12.42;100.00
8717;BME280;4395;48.554;8.820;2023-04-23T06:45:42;95336.00;;;12.41;100.00
8717;BME280;4395;48.554;8.820;2023-04-23T06:47:45;95344.34;;;12.44;100.00
8717;BME280;4395;48.554;8.820;2023-04-23T06:49:49;95330.13;;;12.34;100.00
8717;BME280;4395;48.554;8.820;2023-04-23T06:51:52;95186.91;;;11.57;100.00
8717;BME280;4395;48.554;8.820;2023-04-23T06:53:59;95334.50;;;12.69;100.00
8717;BME280;4395;48.554;8.820;2023-04-23T06:56:02;95240.47;;;12.23;100.00
8717;BME280;4395;48.554;8.820;2023-04-23T06:58:05;95329.50;;;12.91;100.00
8717;BME280;4395;48.554;8.820;2023-04-23T07:00:10;95264.72;;;12.23;100.00
8717;BME280;4395;48.554;8.820;2023-04-23T07:02:15;95330.13;;;12.78;100.00
8717;BME280;4395;48.554;8.820;2023-04-23T07:04:18;95323.13;;;12.77;100.00
8717;BME280;4395;48.554;8.820;2023-04-23T07:06:21;95328.75;;;12.85;100.00
8717;BME280;4395;48.554;8.820;2023-04-23T07:08:24;95208.09;;;11.84;100.00
8717;BME280;4395;48.554;8.820;2023-04-23T07:10:28;95076.47;;;11.28;100.00
8717;BME280;4395;48.554;8.820;2023-04-23T07:12:31;95323.03;;;12.92;100.00
8717;BME280;4395;48.554;8.820;2023-04-23T07:14:33;95311.97;;;12.94;100.00
8717;BME280;4395;48.554;8.820;2023-04-23T07:16:36;95325.03;;;13.15;100.00
8717;BME280;4395;48.554;8.820;2023-04-23T07:18:39;95321.81;;;13.18;100.00
8717;BME280;4395;48.554;8.820;2023-04-23T07:20:42;95328.78;;;13.25;100.00
8717;BME280;4395;48.554;8.820;2023-04-23T07:22:45;95320.97;;;13.23;100.00
8717;BME280;4395;48.554;8.820;2023-04-23T07:24:48;95297.81;;;13.12;100.00
8717;BME280;4395;48.554;8.820;2023-04-23T07:26:52;95318.94;;;13.39;100.00
8717;BME280;4395;48.554;8.820;2023-04-23T07:28:55;95316.19;;;13.44;100.00
8717;BME280;4395;48.554;8.820;2023-04-23T07:30:58;95304.13;;;13.36;100.00
8717;BME280;4395;48.554;8.820;2023-04-23T07:33:01;95059.94;;;11.50;100.00
8717;BME280;4395;48.554;8.820;2023-04-23T07:35:05;95265.47;;;13.12;100.00
8717;BME280;4395;48.554;8.820;2023-04-23T07:37:09;95301.41;;;13.65;100.00
8717;BME280;4395;48.554;8.820;2023-04-23T07:39:12;95305.03;;;13.79;100.00
8717;BME280;4395;48.554;8.820;2023-04-23T07:41:14;95250.16;;;13.60;100.00
8717;BME280;4395;48.554;8.820;2023-04-23T07:43:19;95304.75;;;14.05;100.00
8717;BME280;4395;48.554;8.820;2023-04-23T07:45:21;95230.56;;;13.73;100.00
8717;BME280;4395;48.554;8.820;2023-04-23T07:47:24;95294.41;;;14.12;100.00
8717;BME280;4395;48.554;8.820;2023-04-23T07:49:27;95312.63;;;14.01;100.00
8717;BME280;4395;48.554;8.820;2023-04-23T07:51:30;95125.50;;;12.13;100.00
8717;BME280;4395;48.554;8.820;2023-04-23T07:53:34;95285.31;;;13.55;100.00
8717;BME280;4395;48.554;8.820;2023-04-23T07:55:37;95300.72;;;13.78;100.00
8717;BME280;4395;48.554;8.820;2023-04-23T07:57:40;95304.88;;;13.95;100.00
8717;BME280;4395;48.554;8.820;2023-04-23T07:59:44;95304.75;;;14.05;100.00
8717;BME280;4395;48.554;8.820;2023-04-23T08:01:47;95290.31;;;14.14;100.00
8717;BME280;4395;48.554;8.820;2023-04-23T08:03:50;95302.38;;;14.22;100.00
8717;BME280;4395;48.554;8.820;2023-04-23T08:05:53;95289.19;;;14.39;100.00
8717;BME280;4395;48.554;8.820;2023-04-23T08:07:57;95300.47;;;14.46;100.00
8717;BME280;4395;48.554;8.820;2023-04-23T08:09:59;95296.38;;;14.49;100.00
8717;BME280;4395;48.554;8.820;2023-04-23T08:12:06;95295.06;;;14.65;100.00
8717;BME280;4395;48.554;8.820;2023-04-23T08:14:09;95293.97;;;14.85;100.00
8717;BME280;4395;48.554;8.820;2023-04-23T08:16:13;95296.38;;;15.05;96.37
8717;BME280;4395;48.554;8.820;2023-04-23T08:18:16;95243.00;;;14.92;98.59
8717;BME280;4395;48.554;8.820;2023-04-23T08:20:19;95291.19;;;15.55;95.36
8717;BME280;4395;48.554;8.820;2023-04-23T08:22:21;95288.56;;;15.69;92.56
8717;BME280;4395;48.554;8.820;2023-04-23T08:24:24;95285.97;;;15.78;90.84
8717;BME280;4395;48.554;8.820;2023-04-23T08:26:27;95277.75;;;15.83;91.20
8717;BME280;4395;48.554;8.820;2023-04-23T08:28:30;95274.44;;;15.99;88.94
8717;BME280;4395;48.554;8.820;2023-04-23T08:30:32;95280.56;;;16.05;85.77
8717;BME280;4395;48.554;8.820;2023-04-23T08:32:37;95261.50;;;15.96;86.15
8717;BME280;4395;48.554;8.820;2023-04-23T08:34:40;95273.44;;;16.09;83.73
8717;BME280;4395;48.554;8.820;2023-04-23T08:36:43;95271.44;;;16.15;85.37
8717;BME280;4395;48.554;8.820;2023-04-23T08:38:46;95265.28;;;16.36;84.71
8717;BME280;4395;48.554;8.820;2023-04-23T08:40:55;95272.00;;;16.39;82.22
8717;BME280;4395;48.554;8.820;2023-04-23T08:43:01;95271.84;;;16.58;78.83
8717;BME280;4395;48.554;8.820;2023-04-23T08:45:05;95257.59;;;16.66;77.35
8717;BME280;4395;48.554;8.820;2023-04-23T08:47:10;95261.81;;;16.58;76.69
8717;BME280;4395;48.554;8.820;2023-04-23T08:49:16;95254.97;;;16.61;73.89
8717;BME280;4395;48.554;8.820;2023-04-23T08:51:21;95268.44;;;16.66;74.84
8717;BME280;4395;48.554;8.820;2023-04-23T08:53:25;95256.81;;;16.65;73.98
8717;BME280;4395;48.554;8.820;2023-04-23T08:55:29;95254.06;;;17.01;73.93
8717;BME280;4395;48.554;8.820;2023-04-23T08:57:33;95252.38;;;17.14;74.71
8717;BME280;4395;48.554;8.820;2023-04-23T08:59:36;94857.53;;;14.26;72.83
8717;BME280;4395;48.554;8.820;2023-04-23T09:01:41;95254.19;;;16.96;73.11
8717;BME280;4395;48.554;8.820;2023-04-23T09:03:45;95233.81;;;16.85;75.07
8717;BME280;4395;48.554;8.820;2023-04-23T09:05:50;95197.88;;;16.80;75.41
8717;BME280;4395;48.554;8.820;2023-04-23T09:07:53;95249.34;;;17.38;75.32
8717;BME280;4395;48.554;8.820;2023-04-23T09:09:56;95248.94;;;17.53;70.19
8717;BME280;4395;48.554;8.820;2023-04-23T09:11:59;95247.06;;;17.62;69.49
8717;BME280;4395;48.554;8.820;2023-04-23T09:14:02;95244.19;;;17.28;69.22
8717;BME280;4395;48.554;8.820;2023-04-23T09:16:05;95247.28;;;17.13;71.33
8717;BME280;4395;48.554;8.820;2023-04-23T09:18:08;95244.03;;;17.33;70.78
8717;BME280;4395;48.554;8.820;2023-04-23T09:20:12;95238.69;;;16.97;71.23
8717;BME280;4395;48.554;8.820;2023-04-23T09:22:36;95192.53;;;16.02;74.64
8717;BME280;4395;48.554;8.820;2023-04-23T09:24:40;95206.75;;;16.71;75.20
8717;BME280;4395;48.554;8.820;2023-04-23T09:26:44;95233.25;;;17.19;70.98
8717;BME280;4395;48.554;8.820;2023-04-23T09:28:48;95241.22;;;17.69;67.53
8717;BME280;4395;48.554;8.820;2023-04-23T09:30:52;95236.38;;;17.97;63.77
8717;BME280;4395;48.554;8.820;2023-04-23T09:32:55;95226.72;;;18.22;62.09
8717;BME280;4395;48.554;8.820;2023-04-23T09:34:57;95225.88;;;18.13;60.82
8717;BME280;4395;48.554;8.820;2023-04-23T09:37:01;95209.34;;;17.61;59.13
8717;BME280;4395;48.554;8.820;2023-04-23T09:39:11;95228.38;;;17.30;64.55
8717;BME280;4395;48.554;8.820;2023-04-23T09:41:22;95222.22;;;17.47;68.63
8717;BME280;4395;48.554;8.820;2023-04-23T09:43:29;95219.59;;;17.95;60.77
8717;BME280;4395;48.554;8.820;2023-04-23T09:45:31;95210.41;;;18.22;59.24
8717;BME280;4395;48.554;8.820;2023-04-23T09:47:37;95205.97;;;18.60;58.62
8717;BME280;4395;48.554;8.820;2023-04-23T09:49:47;95185.84;;;18.70;57.11
8717;BME280;4395;48.554;8.820;2023-04-23T09:51:50;95200.53;;;19.12;56.71
8717;BME280;4395;48.554;8.820;2023-04-23T09:53:53;95203.38;;;19.24;54.86
8717;BME280;4395;48.554;8.820;2023-04-23T09:55:57;95185.63;;;19.10;55.19
8717;BME280;4395;48.554;8.820;2023-04-23T09:58:00;95196.38;;;19.06;55.43
8717;BME280;4395;48.554;8.820;2023-04-23T10:00:12;95199.38;;;19.22;54.71
8717;BME280;4395;48.554;8.820;2023-04-23T10:02:16;95150.75;;;18.94;55.24
8717;BME280;4395;48.554;8.820;2023-04-23T10:04:20;95198.91;;;19.20;53.16
8717;BME280;4395;48.554;8.820;2023-04-23T10:06:28;95187.38;;;19.23;54.12
8717;BME280;4395;48.554;8.820;2023-04-23T10:08:52;95179.25;;;19.61;51.98
8717;BME280;4395;48.554;8.820;2023-04-23T10:10:56;95183.66;;;19.83;52.31
8717;BME280;4395;48.554;8.820;2023-04-23T10:13:19;95179.66;;;19.80;51.34
8717;BME280;4395;48.554;8.820;2023-04-23T10:15:22;95172.22;;;19.60;51.73
8717;BME280;4395;48.554;8.820;2023-04-23T10:17:26;95142.09;;;19.56;52.27
8717;BME280;4395;48.554;8.820;2023-04-23T10:19:31;95188.47;;;19.86;51.83
8717;BME280;4395;48.554;8.820;2023-04-23T10:21:34;95160.22;;;19.90;52.81
8717;BME280;4395;48.554;8.820;2023-04-23T10:23:54;95147.53;;;20.15;52.45
8717;BME280;4395;48.554;8.820;2023-04-23T10:26:00;95095.16;;;19.80;51.91
8717;BME280;4395;48.554;8.820;2023-04-23T10:28:05;95150.41;;;20.19;50.39
8717;BME280;4395;48.554;8.820;2023-04-23T10:30:13;95066.53;;;19.66;51.35
8717;BME280;4395;48.554;8.820;2023-04-23T10:32:16;95151.53;;;20.47;51.70
8717;BME280;4395;48.554;8.820;2023-04-23T10:34:19;95141.53;;;20.72;51.10
8717;BME280;4395;48.554;8.820;2023-04-23T10:36:24;95149.22;;;21.12;49.96
8717;BME280;4395;48.554;8.820;2023-04-23T10:38:28;95132.22;;;21.39;48.67
8717;BME280;4395;48.554;8.820;2023-04-23T10:40:32;95137.34;;;21.08;47.67
8717;BME280;4395;48.554;8.820;2023-04-23T10:42:40;95131.31;;;21.35;48.95
8717;BME280;4395;48.554;8.820;2023-04-23T10:44:44;95140.00;;;21.62;47.96
8717;BME280;4395;48.554;8.820;2023-04-23T10:47:02;95138.41;;;21.85;45.79
8717;BME280;4395;48.554;8.820;2023-04-23T10:49:10;95013.22;;;20.72;46.36
8717;BME280;4395;48.554;8.820;2023-04-23T10:51:15;95132.81;;;21.57;47.51
8717;BME280;4395;48.554;8.820;2023-04-23T10:53:40;95127.47;;;21.61;45.78
8717;BME280;4395;48.554;8.820;2023-04-23T10:55:43;95130.72;;;21.30;46.41
8717;BME280;4395;48.554;8.820;2023-04-23T10:58:06;95130.25;;;21.28;46.19
8717;BME280;4395;48.554;8.820;2023-04-23T11:00:10;95127.09;;;21.05;48.53
8717;BME280;4395;48.554;8.820;2023-04-23T11:02:13;95114.56;;;20.29;48.06
8717;BME280;4395;48.554;8.820;2023-04-23T11:04:20;95109.56;;;20.10;53.20
8717;BME280;4395;48.554;8.820;2023-04-23T11:06:55;95116.19;;;21.05;48.43
8717;BME280;4395;48.554;8.820;2023-04-23T11:08:59;95088.81;;;21.26;47.59
8717;BME280;4395;48.554;8.820;2023-04-23T11:11:26;95111.75;;;21.82;46.23